Flight Track Log - Related Links

Times and Time Zones

All times are in EDT time to prevent confusion due to time zone crossing. See the ACA810 flight status page for this flight to view local times or setup timezone preferences in your user account.

Time Position Orientation Groundspeed Altitude Reporting Facility
EDT Latitude Longitude Course Direction KTS MPH feet Rate Location/Type
Fri 08:14:05 PM 43.6750 -79.6140 126° Southeast 10 12  Level FlightAware
Fri 08:23:17 PM 43.6550 -79.6270 230° Southwest 183 211 900 210 Climbing FlightAware
Fri 08:23:37 PM 43.6420 -79.6450 225° Southwest 176 203 2,000 2,800 Climbing FlightAware
Fri 08:24:02 PM 43.6260 -79.6670 225° Southwest 183 211 3,000 2,280 Climbing FlightAware
Fri 08:24:27 PM 43.6110 -79.6870 224° Southwest 188 216 3,900 2,000 Climbing FlightAware
Fri 08:24:38 PM 43.6040 -79.6950 220° Southwest 194 223 4,200 1,200 Climbing FlightAware
Fri 08:24:52 PM 43.5900 -79.7010 197° South 219 252 4,400 1,077 Climbing FlightAware
Fri 08:25:17 PM 43.5650 -79.6820 151° Southeast 260 299 4,900 1,650 Climbing FlightAware
Fri 08:25:32 PM 43.5570 -79.6600 117° Southeast 267 307 5,500 2,400 Climbing FlightAware
Fri 08:26:17 PM 43.5700 -79.5800 77° East 296 341 7,300 2,400 Climbing FlightAware
Fri 08:26:27 PM 43.5750 -79.5630 68° East 300 345 7,700 2,400 Climbing FlightAware
Fri 08:26:57 PM 43.5890 -79.5090 70° East 309 356 8,900 2,480 Climbing FlightAware
Fri 08:27:42 PM 43.6100 -79.4250 71° East 320 368 10,800 1,906 Climbing FlightAware
Fri 08:28:22 PM 43.6300 -79.3470 70° East 361 415 11,600 1,952 Climbing FlightAware
Fri 08:29:05 PM 43.6570 -79.2350 72° East 378 435 13,500 2,385 Climbing FlightAware
Fri 08:29:40 PM 43.6790 -79.1540 69° East 394 453 14,700 2,160 Climbing FlightAware
Fri 08:30:20 PM 43.7010 -79.0560 73° East 402 463 16,200 2,250 Climbing FlightAware
Fri 08:31:00 PM 43.7240 -78.9570 72° East 410 472 17,700 2,175 Climbing FlightAware
Fri 08:31:40 PM 43.7490 -78.8570 71° East 417 480 19,100 1,950 Climbing FlightAware
Fri 08:32:20 PM 43.7770 -78.7540 69° East 429 494 20,300 1,800 Climbing FlightAware
Fri 08:33:00 PM 43.8100 -78.6550 65° Northeast 439 505 21,500 1,765 Climbing FlightAware
Fri 08:33:45 PM 43.8500 -78.5390 64° Northeast 450 518 22,800 1,553 Climbing FlightAware
Fri 08:34:25 PM 43.8850 -78.4370 65° Northeast 460 529 23,700 1,125 Climbing FlightAware
Fri 08:35:05 PM 43.9240 -78.3250 64° Northeast 485 558 24,300 706 Climbing FlightAware
Fri 08:35:50 PM 43.9700 -78.2010 63° Northeast 511 588 24,700 947 Climbing FlightAware
Fri 08:36:40 PM 44.0350 -78.0610 57° Northeast 524 603 25,800 1,467 Climbing FlightAware
Fri 08:37:20 PM 44.0910 -77.9480 55° Northeast 528 608 26,900 1,800 Climbing FlightAware
Fri 08:38:00 PM 44.1450 -77.8390 55° Northeast 523 602 28,200 1,600 Climbing FlightAware
Fri 08:38:50 PM 44.2140 -77.6980 56° Northeast 529 609 29,300 1,400 Climbing FlightAware
Fri 08:39:30 PM 44.2690 -77.5880 55° Northeast 528 608 30,300 1,341 Climbing FlightAware
Fri 08:40:15 PM 44.3280 -77.4650 56° Northeast 530 610 31,200 1,267 Climbing FlightAware
Fri 08:41:00 PM 44.3910 -77.3360 56° Northeast 530 610 32,200 1,200 Climbing FlightAware
Fri 08:41:40 PM 44.4500 -77.2140 56° Northeast 533 613 32,900 565 Climbing FlightAware
Fri 08:42:25 PM 44.5080 -77.0950 56° Northeast 539 620 33,000 71 Climbing FlightAware
Fri 08:43:05 PM 44.5690 -76.9690 56° Northeast 537 618 33,000  Level FlightAware
Fri 08:43:50 PM 44.6300 -76.8390 57° Northeast 534 615 33,000  Level FlightAware
Fri 08:44:46 PM 44.7020 -76.6900 56° Northeast 529 609 33,000  Level FlightAware
Fri 08:45:25 PM 44.7580 -76.5700 57° Northeast 525 604 33,000  Level FlightAware
Fri 08:46:12 PM 44.8200 -76.4400 56° Northeast 523 602 33,000  Level FlightAware
Fri 08:46:51 PM 44.8720 -76.3280 57° Northeast 517 595 33,000  Level FlightAware
Fri 08:47:35 PM 44.9350 -76.1910 57° Northeast 523 602 33,000  Level FlightAware
Fri 08:48:19 PM 44.9930 -76.0650 57° Northeast 527 606 33,000  Level FlightAware
Fri 08:48:55 PM 45.0410 -75.9590 57° Northeast 530 610 33,000  Level FlightAware
Fri 08:49:37 PM 45.0960 -75.8380 57° Northeast 532 612 33,000  Level FlightAware
Fri 08:50:19 PM 45.1520 -75.7140 57° Northeast 534 615 33,000  Level FlightAware
Fri 08:50:55 PM 45.2010 -75.6080 57° Northeast 535 616 33,000  Level FlightAware
Fri 08:51:36 PM 45.2540 -75.4890 58° Northeast 535 616 33,000  Level FlightAware
Fri 08:52:18 PM 45.3100 -75.3640 57° Northeast 533 613 33,000  Level FlightAware
Fri 08:53:00 PM 45.3650 -75.2410 57° Northeast 531 611 33,000  Level FlightAware
Fri 08:53:44 PM 45.4240 -75.1090 57° Northeast 531 611 33,000  Level FlightAware
Fri 08:54:26 PM 45.4780 -74.9860 58° Northeast 530 610 33,000  Level FlightAware
Fri 08:55:06 PM 45.5310 -74.8660 58° Northeast 529 609 33,000  Level FlightAware
Fri 08:55:42 PM 45.5770 -74.7600 58° Northeast 530 610 33,000  Level FlightAware
Fri 08:56:22 PM 45.6290 -74.6410 58° Northeast 528 608 33,000  Level FlightAware
Fri 08:57:06 PM 45.6850 -74.5130 58° Northeast 528 608 33,000  Level FlightAware
Fri 08:57:38 PM 45.7270 -74.4170 58° Northeast 527 606 33,000  Level FlightAware
Fri 08:58:22 PM 45.7830 -74.2850 59° Northeast 527 606 33,000  Level FlightAware
Fri 08:59:02 PM 45.8330 -74.1690 58° Northeast 526 605 33,000  Level FlightAware
Fri 08:59:46 PM 45.8890 -74.0370 59° Northeast 526 605 33,000  Level FlightAware
Fri 09:00:26 PM 45.9400 -73.9190 58° Northeast 526 605 33,000  Level FlightAware
Fri 09:01:08 PM 45.9930 -73.7920 59° Northeast 524 603 33,000  Level FlightAware
Fri 09:01:53 PM 46.0490 -73.6600 59° Northeast 525 604 33,000  Level FlightAware
Fri 09:02:33 PM 46.1000 -73.5390 59° Northeast 526 605 33,000  Level FlightAware
Fri 09:03:17 PM 46.1550 -73.4070 59° Northeast 528 608 33,000  Level FlightAware
Fri 09:03:57 PM 46.2050 -73.2870 59° Northeast 529 609 33,000  Level FlightAware
Fri 09:04:41 PM 46.2600 -73.1530 59° Northeast 528 608 33,000  Level FlightAware
Fri 09:05:21 PM 46.3100 -73.0330 59° Northeast 525 604 33,000  Level FlightAware
Fri 09:06:05 PM 46.3650 -72.9000 59° Northeast 525 604 33,000  Level FlightAware
Fri 09:06:47 PM 46.4170 -72.7720 59° Northeast 524 603 33,000  Level FlightAware
Fri 09:07:27 PM 46.4650 -72.6520 60° Northeast 522 601 33,000  Level FlightAware
Fri 09:08:11 PM 46.5190 -72.5190 59° Northeast 523 602 33,000  Level FlightAware
Fri 09:08:49 PM 46.5650 -72.4060 59° Northeast 522 601 33,000  Level FlightAware
Fri 09:09:31 PM 46.6160 -72.2780 60° Northeast 523 602 33,000  Level FlightAware
Fri 09:10:07 PM 46.6600 -72.1670 60° Northeast 523 602 33,000  Level FlightAware
Fri 09:10:51 PM 46.7130 -72.0340 60° Northeast 521 600 33,000  Level FlightAware
Fri 09:11:25 PM 46.7540 -71.9320 60° Northeast 520 598 33,000  Level FlightAware
Fri 09:12:09 PM 46.8070 -71.7980 60° Northeast 521 600 33,000  Level FlightAware
Fri 09:12:47 PM 46.8480 -71.6920 60° Northeast 521 600 33,000  Level FlightAware
Fri 09:13:26 PM 46.8970 -71.5660 60° Northeast 521 600 33,000  Level FlightAware
Fri 09:14:06 PM 46.9460 -71.4420 60° Northeast 522 601 33,000  Level FlightAware
Fri 09:14:47 PM 46.9930 -71.3190 61° Northeast 522 601 33,000  Level FlightAware
Fri 09:15:31 PM 47.0430 -71.1890 61° Northeast 524 603 33,000  Level FlightAware
Fri 09:16:11 PM 47.0940 -71.0570 60° Northeast 523 602 33,000  Level FlightAware
Fri 09:16:51 PM 47.1410 -70.9340 61° Northeast 524 603 33,000  Level FlightAware
Fri 09:17:36 PM 47.1900 -70.8040 61° Northeast 522 601 33,000  Level FlightAware
Fri 09:18:16 PM 47.2410 -70.6700 61° Northeast 523 602 33,000  Level FlightAware
Fri 09:18:51 PM 47.2790 -70.5690 61° Northeast 523 602 33,000  Level FlightAware
Fri 09:19:31 PM 47.3290 -70.4370 61° Northeast 522 601 33,000  Level FlightAware
Fri 09:20:11 PM 47.3720 -70.3210 61° Northeast 524 603 33,000  Level FlightAware
Fri 09:20:51 PM 47.4190 -70.1940 61° Northeast 524 603 33,000  Level FlightAware
Fri 09:21:36 PM 47.4720 -70.0510 61° Northeast 523 602 33,000  Level FlightAware
Fri 09:22:16 PM 47.5200 -69.9200 61° Northeast 520 598 33,000  Level FlightAware
Fri 09:22:56 PM 47.5630 -69.8000 62° Northeast 517 595 33,000  Level FlightAware
Fri 09:23:37 PM 47.6070 -69.6810 61° Northeast 516 594 33,000  Level FlightAware
Fri 09:24:23 PM 47.6620 -69.5270 62° Northeast 516 594 33,000  Level FlightAware
Fri 09:25:03 PM 47.7080 -69.4010 61° Northeast 516 594 33,000  Level FlightAware
Fri 09:25:38 PM 47.7470 -69.2910 62° Northeast 514 592 33,000  Level FlightAware
Fri 09:26:21 PM 47.7920 -69.1670 62° Northeast 515 593 33,000  Level FlightAware
Fri 09:27:03 PM 47.8360 -69.0410 62° Northeast 513 590 33,000  Level FlightAware
Fri 09:27:38 PM 47.8750 -68.9310 62° Northeast 513 590 33,000  Level FlightAware
Fri 09:28:27 PM 47.9310 -68.7730 62° Northeast 509 586 33,000  Level FlightAware
Fri 09:29:12 PM 47.9730 -68.6550 62° Northeast 509 586 33,000  Level FlightAware
Fri 09:29:48 PM 48.0070 -68.5600 62° Northeast 509 586 33,000  Level FlightAware
Fri 09:30:56 PM 48.0700 -68.3800 62° Northeast 509 586 33,000  Level FlightAware
Fri 09:31:45 PM 48.1170 -68.2500 62° Northeast 509 586 33,000  Level FlightAware
Fri 09:32:23 PM 48.1520 -68.1500 62° Northeast 509 586 33,000  Level FlightAware
Fri 09:32:59 PM 48.1860 -68.0540 62° Northeast 509 586 33,000  Level FlightAware
Fri 09:34:11 PM 48.2540 -67.8630 62° Northeast 509 586 33,000  Level FlightAware
Fri 09:34:47 PM 48.2870 -67.7680 62° Northeast 509 586 33,000  Level FlightAware
Fri 09:35:47 PM 48.3440 -67.6080 62° Northeast 509 586 33,000  Level FlightAware
Fri 09:36:35 PM 48.3890 -67.4800 62° Northeast 509 586 33,000  Level FlightAware
Fri 09:37:11 PM 48.4230 -67.3850 62° Northeast 509 586 33,000  Level FlightAware
Fri 09:38:00 PM 48.4690 -67.2540 62° Northeast 509 586 33,000  Level FlightAware
Fri 09:38:53 PM 48.5833 -66.8000 62° Northeast 500 575 33,000  Level Moncton Center
Fri 09:39:53 PM 48.6500 -66.6000 63° Northeast 510 587 33,000  Level Moncton Center
Fri 09:40:53 PM 48.7000 -66.4000 69° East 510 587 33,000  Level Moncton Center
Fri 09:41:53 PM 48.7667 -66.2000 63° Northeast 510 587 33,000  Level Moncton Center
Fri 09:42:53 PM 48.8333 -66.0167 61° Northeast 510 587 33,000  Level Moncton Center
Fri 09:43:53 PM 48.9000 -65.8167 63° Northeast 510 587 33,000  Level Moncton Center
Fri 09:44:53 PM 48.9500 -65.6500 65° Northeast 510 587 33,000  Level Moncton Center
Fri 09:45:53 PM 49.0167 -65.4500 63° Northeast 510 587 33,000  Level Moncton Center
Fri 09:46:53 PM 49.0667 -65.2333 71° East 510 587 33,000  Level Moncton Center
Fri 09:47:53 PM 49.1333 -65.0667 59° Northeast 510 587 33,000  Level Moncton Center
Fri 09:48:53 PM 49.1833 -64.8333 72° East 510 587 33,000  Level Moncton Center
Fri 09:49:53 PM 49.2500 -64.6500 61° Northeast 510 587 33,000  Level Moncton Center
Fri 09:50:53 PM 49.3000 -64.4500 69° East 510 587 33,000  Level Moncton Center
Fri 09:51:53 PM 49.3667 -64.2500 63° Northeast 510 587 33,000  Level Moncton Center
Fri 09:52:53 PM 49.4167 -64.0333 70° East 510 587 33,000  Level Moncton Center
Fri 09:53:53 PM 49.4833 -63.8500 61° Northeast 510 587 33,000  Level Moncton Center
Fri 09:54:53 PM 49.5333 -63.6500 69° East 510 587 33,000  Level Moncton Center
Fri 09:55:53 PM 49.6000 -63.4333 65° Northeast 510 587 33,000  Level Moncton Center
Fri 09:56:53 PM 49.6167 -63.2667 81° East 490 564 33,000  Level Moncton Center
Fri 09:57:53 PM 49.7167 -63.0500 54° Northeast 510 587 33,000  Level Moncton Center
Fri 09:58:53 PM 49.7667 -62.8667 67° East 510 587 33,000  Level Moncton Center
Fri 09:59:53 PM 49.8167 -62.6667 69° East 500 575 33,000  Level Moncton Center
Fri 10:00:53 PM 49.8833 -62.4500 64° Northeast 500 575 33,000  Level Moncton Center
Fri 10:01:53 PM 49.9167 -62.2667 74° East 490 564 33,000  Level Moncton Center
Fri 10:02:53 PM 49.9833 -62.0500 64° Northeast 490 564 33,000  Level Moncton Center
Fri 10:03:53 PM 50.0333 -61.8667 67° East 490 564 33,000  Level Moncton Center
Fri 10:04:53 PM 50.0833 -61.6833 67° East 480 552 33,000  Level Moncton Center
Fri 10:05:53 PM 50.1167 -61.5000 74° East 490 564 33,000  Level Moncton Center
Fri 10:06:53 PM 50.1833 -61.2833 64° Northeast 480 552 33,000  Level Moncton Center
Fri 10:07:53 PM 50.2333 -61.1000 67° East 480 552 33,000  Level Moncton Center
Fri 10:08:53 PM 50.2833 -60.8833 70° East 480 552 33,000  Level Moncton Center
Fri 10:09:53 PM 50.3333 -60.7000 67° East 480 552 33,000  Level Moncton Center
Fri 10:10:53 PM 50.3833 -60.5167 67° East 480 552 33,000  Level Moncton Center
Fri 10:11:53 PM 50.4167 -60.3000 76° East 480 552 33,000  Level Moncton Center
Fri 10:12:53 PM 50.4833 -60.1000 62° Northeast 480 552 33,000  Level Moncton Center
Fri 10:13:53 PM 50.5333 -59.9167 67° East 480 552 33,000  Level Moncton Center
Fri 10:14:53 PM 50.5667 -59.7000 76° East 480 552 33,000  Level Moncton Center
Fri 10:15:53 PM 50.6333 -59.5167 60° Northeast 480 552 33,000  Level Moncton Center
Fri 10:16:53 PM 50.6667 -59.3167 75° East 470 541 33,000  Level Moncton Center
Fri 10:17:53 PM 50.7333 -59.1333 60° Northeast 470 541 33,000  Level Moncton Center
Fri 10:18:53 PM 50.7833 -58.9333 68° East 470 541 33,000  Level Moncton Center
Fri 10:19:53 PM 50.8333 -58.7833 62° Northeast 470 541 33,000  Level Moncton Center
Fri 10:20:53 PM 50.8833 -58.5833 68° East 470 541 33,000  Level Moncton Center
Fri 10:21:53 PM 50.9500 -58.3833 62° Northeast 470 541 33,000  Level Moncton Center
Fri 10:22:53 PM 51.0000 -58.2000 67° East 470 541 33,000  Level Moncton Center
Fri 10:23:53 PM 51.0500 -58.0000 68° East 470 541 33,000  Level Moncton Center
Fri 10:24:53 PM 51.1000 -57.8167 66° East 460 529 33,000  Level Moncton Center
Fri 10:25:53 PM 51.1500 -57.6167 68° East 470 541 33,000  Level Moncton Center
Fri 10:26:53 PM 51.2000 -57.4500 64° Northeast 460 529 33,000  Level Moncton Center
Fri 10:27:53 PM 51.2500 -57.2500 68° East 460 529 33,000  Level Moncton Center
Fri 10:28:53 PM 51.3000 -57.0500 68° East 460 529 33,000  Level Moncton Center
Fri 10:29:53 PM 51.3500 -56.8833 64° Northeast 460 529 33,000 350 Level Moncton Center
Fri 10:30:53 PM 51.4000 -56.6833 68° East 460 529 33,700 500 Climbing Moncton Center
Fri 10:31:53 PM 51.4500 -56.5000 66° East 460 529 34,000 150 Climbing Moncton Center
Fri 10:32:53 PM 51.5167 -56.3000 62° Northeast 470 541 34,000  Level Moncton Center
Fri 10:33:53 PM 51.5500 -56.1000 75° East 460 529 34,000  Level Moncton Center
Fri 10:34:53 PM 51.6000 -55.9000 68° East 460 529 34,000  Level Moncton Center
Fri 10:35:53 PM 51.6333 -55.7333 72° East 450 518 34,000  Level Moncton Center
Fri 10:36:53 PM 51.6833 -55.5333 68° East 450 518 34,000  Level Moncton Center
Fri 10:37:53 PM 51.7333 -55.3667 64° Northeast 440 506 34,000  Level Moncton Center
Fri 10:38:55 PM 51.7833 -55.1667 68° East 450 518 34,000  Level Gander Center
Fri 10:39:55 PM 51.8167 -54.9667 75° East 450 518 34,000  Level Gander Center
Fri 10:40:55 PM 51.8833 -54.7833 59° Northeast 460 529 34,000  Level Gander Center
Fri 10:41:55 PM 51.9167 -54.5833 75° East 460 529 34,000  Level Gander Center
Fri 10:42:55 PM 51.9667 -54.3833 68° East 460 529 34,000  Level Gander Center
Fri 10:43:55 PM 52.0167 -54.2167 64° Northeast 460 529 34,000  Level Gander Center
Fri 10:45:16 PM 52.0667 -53.9333 74° East 470 541 34,000  Level Gander Center
Fri 10:46:16 PM 52.1167 -53.7500 66° East 450 518 34,000  Level Gander Center
Fri 10:46:55 PM 52.1500 -53.6167 68° East 460 529 34,000  Level Gander Center
Fri 10:47:55 PM 52.1833 -53.4167 75° East 460 529 34,000  Level Gander Center
Fri 10:48:55 PM 52.2333 -53.2500 64° Northeast 450 518 34,000  Level Gander Center
Fri 10:49:55 PM 52.2833 -53.0500 68° East 450 518 34,000  Level Gander Center
Fri 10:49:59 PM 52.2167 -53.3667 68° East 463 533 34,000  Level ETMS Enhanced
Fri 10:50:55 PM 52.3333 -52.8500 68° East 460 529 34,000  Level Gander Center
Fri 10:51:55 PM 52.3833 -52.6167 71° East 450 518 34,000  Level Gander Center
Fri 10:53:16 PM 52.4333 -52.4167 68° East 450 518 34,000  Level Gander Center
Fri 10:54:16 PM 52.4833 -52.2000 69° East 460 529 34,000  Level Gander Center
Fri 10:55:16 PM 52.5167 -52.0333 72° East 450 518 34,000  Level Gander Center
Fri 10:56:16 PM 52.5667 -51.8333 68° East 450 518 34,000  Level Gander Center
Fri 10:57:16 PM 52.6000 -51.6500 73° East 450 518 34,000  Level Gander Center
Fri 10:58:16 PM 52.6500 -51.4500 68° East 460 529 34,000  Level Gander Center
Fri 10:59:16 PM 52.7000 -51.2667 66° East 460 529 34,000  Level Gander Center
Fri 11:00:16 PM 52.7167 -51.0833 81° East 450 518 34,000  Level Gander Center
Fri 11:01:16 PM 52.8000 -50.8667 57° Northeast 460 529 34,000  Level Gander Center
Fri 11:03:16 PM 52.8667 -50.4833 74° East 460 529 34,000  Level Gander Center
Fri 11:04:16 PM 52.9167 -50.2667 69° East 450 518 34,000  Level Gander Center
Fri 11:05:16 PM 52.9500 -50.0667 74° East 450 518 34,000  Level Gander Center
Fri 11:06:16 PM 53.0167 -49.8500 63° Northeast 470 541 34,000  Level Gander Center
Fri 11:07:00 PM 53.0000 -50.0000 76° East 471 542 34,000  Level ETMS Enhanced
Fri 11:13:00 PM 53.2333 -48.2975 78° East 471 542 34,000  Level FlightAware
Fri 11:14:00 PM 53.2608 -48.0835 78° East 471 542 34,000  Level FlightAware
Fri 11:15:00 PM 53.2878 -47.8691 78° East 471 542 34,000  Level FlightAware
Fri 11:16:00 PM 53.3145 -47.6545 78° East 471 542 34,000  Level FlightAware
Fri 11:17:00 PM 53.3408 -47.4396 79° East 471 542 34,000  Level FlightAware
Fri 11:18:00 PM 53.3667 -47.2244 79° East 471 542 34,000  Level FlightAware
Fri 11:19:00 PM 53.3922 -47.0090 79° East 471 542 34,000  Level FlightAware
Fri 11:20:00 PM 53.4174 -46.7933 79° East 471 542 34,000  Level FlightAware
Fri 11:21:00 PM 53.4421 -46.5774 79° East 471 542 34,000  Level FlightAware
Fri 11:22:00 PM 53.4665 -46.3612 79° East 471 542 34,000  Level FlightAware
Fri 11:23:00 PM 53.4904 -46.1448 80° East 471 542 34,000  Level FlightAware
Fri 11:24:00 PM 53.5140 -45.9281 80° East 471 542 34,000  Level FlightAware
Fri 11:25:00 PM 53.5372 -45.7112 80° East 471 542 34,000  Level FlightAware
Fri 11:26:00 PM 53.5600 -45.4941 80° East 471 542 34,000  Level FlightAware
Fri 11:27:00 PM 53.5824 -45.2767 80° East 471 542 34,000  Level FlightAware
Fri 11:28:00 PM 53.6044 -45.0591 80° East 471 542 34,000  Level FlightAware
Fri 11:29:00 PM 53.6260 -44.8413 81° East 471 542 34,000  Level FlightAware
Fri 11:30:00 PM 53.6472 -44.6232 81° East 471 542 34,000  Level FlightAware
Fri 11:31:00 PM 53.6680 -44.4050 81° East 471 542 34,000  Level FlightAware
Fri 11:32:00 PM 53.6884 -44.1865 81° East 471 542 34,000  Level FlightAware
Fri 11:33:00 PM 53.7084 -43.9678 81° East 471 542 34,000  Level FlightAware
Fri 11:34:00 PM 53.7281 -43.7489 81° East 471 542 34,000  Level FlightAware
Fri 11:35:00 PM 53.7473 -43.5298 82° East 471 542 34,000  Level FlightAware
Fri 11:36:00 PM 53.7661 -43.3105 82° East 471 542 34,000  Level FlightAware
Fri 11:37:00 PM 53.7845 -43.0910 82° East 471 542 34,000  Level FlightAware
Fri 11:38:00 PM 53.8025 -42.8714 82° East 471 542 34,000  Level FlightAware
Fri 11:39:00 PM 53.8201 -42.6515 82° East 471 542 34,000  Level FlightAware
Fri 11:40:00 PM 53.8374 -42.4314 83° East 471 542 34,000  Level FlightAware
Fri 11:41:00 PM 53.8542 -42.2112 83° East 471 542 34,000  Level FlightAware
Fri 11:42:00 PM 53.8706 -41.9908 83° East 471 542 34,000  Level FlightAware
Fri 11:43:00 PM 53.8866 -41.7702 83° East 471 542 34,000  Level FlightAware
Fri 11:44:00 PM 53.9022 -41.5495 83° East 471 542 34,000  Level FlightAware
Fri 11:45:00 PM 53.9174 -41.3286 83° East 471 542 34,000  Level FlightAware
Fri 11:46:00 PM 53.9322 -41.1075 84° East 471 542 34,000  Level FlightAware
Fri 11:47:00 PM 53.9465 -40.8863 84° East 471 542 34,000  Level FlightAware
Fri 11:48:00 PM 53.9605 -40.6650 84° East 471 542 34,000  Level FlightAware
Fri 11:49:00 PM 53.9741 -40.4435 84° East 471 542 34,000  Level FlightAware
Fri 11:50:00 PM 53.9873 -40.2218 84° East 471 542 34,000  Level FlightAware
Fri 11:51:00 PM 54.0004 -39.9934 84° East  Level FlightAware
Fri 11:52:00 PM 54.0031 -39.9879 67° East  Level FlightAware
Fri 11:53:00 PM 54.0562 -39.7768 67° East  Level FlightAware
Fri 11:54:00 PM 54.1089 -39.5651 67° East  Level FlightAware
Fri 11:54:00 PM 54.0000 -40.0000 67° East 520 598 34,000  Level ETMS Enhanced
Fri 11:55:00 PM 54.1613 -39.3529 67° East  Level FlightAware
Fri 11:56:00 PM 54.2132 -39.1402 67° East  Level FlightAware
Fri 11:57:00 PM 54.2646 -38.9281 67° East  Level FlightAware
Fri 11:58:00 PM 54.3155 -38.7155 68° East  Level FlightAware
Fri 11:59:00 PM 54.3661 -38.5023 68° East  Level FlightAware
Sat 12:00:00 AM 54.4964 -37.9431 68° East 520 598 34,000  Level FlightAware
Sat 12:01:00 AM 54.5494 -37.7115 69° East 520 598 34,000  Level FlightAware
Sat 12:02:00 AM 54.6020 -37.4793 69° East 520 598 34,000  Level FlightAware
Sat 12:03:00 AM 54.6540 -37.2465 69° East 520 598 34,000  Level FlightAware
Sat 12:04:00 AM 54.7057 -37.0131 69° East 520 598 34,000  Level FlightAware
Sat 12:05:00 AM 54.7569 -36.7791 69° East 520 598 34,000  Level FlightAware
Sat 12:06:00 AM 54.8076 -36.5446 70° East 520 598 34,000  Level FlightAware
Sat 12:07:00 AM 54.8579 -36.3094 70° East 520 598 34,000  Level FlightAware
Sat 12:08:00 AM 54.9078 -36.0737 70° East 520 598 34,000  Level FlightAware
Sat 12:09:00 AM 54.9571 -35.8374 70° East 520 598 34,000  Level FlightAware
Sat 12:10:00 AM 55.0061 -35.6005 70° East 520 598 34,000  Level FlightAware
Sat 12:11:00 AM 55.0545 -35.3630 71° East 520 598 34,000  Level FlightAware
Sat 12:12:00 AM 55.1025 -35.1250 71° East 520 598 34,000  Level FlightAware
Sat 12:13:00 AM 55.1500 -34.8863 71° East 520 598 34,000  Level FlightAware
Sat 12:14:00 AM 55.1971 -34.6472 71° East 520 598 34,000  Level FlightAware
Sat 12:15:00 AM 55.2437 -34.4074 71° East 520 598 34,000  Level FlightAware
Sat 12:16:00 AM 55.2898 -34.1671 71° East 520 598 34,000  Level FlightAware
Sat 12:17:00 AM 55.3354 -33.9263 72° East 520 598 34,000  Level FlightAware
Sat 12:18:00 AM 55.3806 -33.6848 72° East 520 598 34,000  Level FlightAware
Sat 12:19:00 AM 55.4253 -33.4429 72° East 520 598 34,000  Level FlightAware
Sat 12:20:00 AM 55.4695 -33.2004 72° East 520 598 34,000  Level FlightAware
Sat 12:21:00 AM 55.5133 -32.9573 72° East 520 598 34,000  Level FlightAware
Sat 12:22:00 AM 55.5565 -32.7137 73° East 520 598 34,000  Level FlightAware
Sat 12:23:00 AM 55.5993 -32.4696 73° East 520 598 34,000  Level FlightAware
Sat 12:24:00 AM 55.6416 -32.2250 73° East 520 598 34,000  Level FlightAware
Sat 12:25:00 AM 55.6834 -31.9798 73° East 520 598 34,000  Level FlightAware
Sat 12:26:00 AM 55.7247 -31.7341 73° East 520 598 34,000  Level FlightAware
Sat 12:27:00 AM 55.7655 -31.4879 74° East 520 598 34,000  Level FlightAware
Sat 12:28:00 AM 55.8058 -31.2412 74° East 520 598 34,000  Level FlightAware
Sat 12:29:00 AM 55.8457 -30.9939 74° East 520 598 34,000  Level FlightAware
Sat 12:30:00 AM 55.8850 -30.7462 74° East 520 598 34,000  Level FlightAware
Sat 12:31:00 AM 55.9238 -30.4980 75° East 520 598 34,000  Level FlightAware
Sat 12:32:00 AM 55.9622 -30.2492 75° East 520 598 34,000  Level FlightAware
Sat 12:33:00 AM 55.9973 -30.0178 75° East  Level FlightAware
Sat 12:34:00 AM 56.0320 -29.7860 75° East  Level FlightAware
Sat 12:35:00 AM 56.0080 -29.7975 86° East  Level FlightAware
Sat 12:35:00 AM 56.0000 -30.0000 86° East 543 625 34,000  Level ETMS Enhanced
Sat 12:36:00 AM 56.0171 -29.5581 86° East  Level FlightAware
Sat 12:37:00 AM 56.0257 -29.3185 86° East  Level FlightAware
Sat 12:38:00 AM 56.0339 -29.0789 86° East  Level FlightAware
Sat 12:39:00 AM 56.0416 -28.8391 87° East  Level FlightAware
Sat 12:40:00 AM 56.0488 -28.5993 87° East  Level FlightAware
Sat 12:41:00 AM 56.0686 -27.8412 88° East 543 625 34,000  Level FlightAware
Sat 12:42:00 AM 56.0745 -27.5709 88° East 543 625 34,000  Level FlightAware
Sat 12:43:00 AM 56.0798 -27.3005 88° East 543 625 34,000  Level FlightAware
Sat 12:44:00 AM 56.0845 -27.0300 88° East 543 625 34,000  Level FlightAware
Sat 12:45:00 AM 56.0887 -26.7595 89° East 543 625 34,000  Level FlightAware
Sat 12:46:00 AM 56.0922 -26.4889 89° East 543 625 34,000  Level FlightAware
Sat 12:47:00 AM 56.0952 -26.2182 89° East 543 625 34,000  Level FlightAware
Sat 12:48:00 AM 56.0976 -25.9475 89° East 543 625 34,000  Level FlightAware
Sat 12:49:00 AM 56.0993 -25.6768 89° East 543 625 34,000  Level FlightAware
Sat 12:50:00 AM 56.1005 -25.4061 90° East 543 625 34,000  Level FlightAware
Sat 12:51:00 AM 56.1011 -25.1354 90° East 543 625 34,000  Level FlightAware
Sat 12:52:00 AM 56.1011 -24.8646 90° East 543 625 34,000  Level FlightAware
Sat 12:53:00 AM 56.1005 -24.5939 90° East 543 625 34,000  Level FlightAware
Sat 12:54:00 AM 56.0993 -24.3232 91° East 543 625 34,000  Level FlightAware
Sat 12:55:00 AM 56.0976 -24.0525 91° East 543 625 34,000  Level FlightAware
Sat 12:56:00 AM 56.0952 -23.7818 91° East 543 625 34,000  Level FlightAware
Sat 12:57:00 AM 56.0922 -23.5111 91° East 543 625 34,000  Level FlightAware
Sat 12:58:00 AM 56.0887 -23.2405 91° East 543 625 34,000  Level FlightAware
Sat 12:59:00 AM 56.0845 -22.9700 92° East 543 625 34,000  Level FlightAware
Sat 01:00:00 AM 56.0798 -22.6995 92° East 543 625 34,000  Level FlightAware
Sat 01:01:00 AM 56.0745 -22.4291 92° East 543 625 34,000  Level FlightAware
Sat 01:02:00 AM 56.0686 -22.1588 92° East 543 625 34,000  Level FlightAware
Sat 01:03:00 AM 56.0621 -21.8886 93° East 543 625 34,000  Level FlightAware
Sat 01:04:00 AM 56.0550 -21.6184 93° East 543 625 34,000  Level FlightAware
Sat 01:05:00 AM 56.0473 -21.3484 93° East 543 625 34,000  Level FlightAware
Sat 01:06:00 AM 56.0390 -21.0784 93° East 543 625 34,000  Level FlightAware
Sat 01:07:00 AM 56.0301 -20.8086 93° East 543 625 34,000  Level FlightAware
Sat 01:08:00 AM 56.0207 -20.5389 94° East 543 625 34,000  Level FlightAware
Sat 01:09:00 AM 56.0106 -20.2694 94° East 543 625 34,000 17 Level FlightAware
Sat 01:10:00 AM 56.0012 -20.0301 94° East  Level FlightAware
Sat 01:11:00 AM 55.9913 -19.7908 94° East  Level FlightAware
Sat 01:12:00 AM 55.9688 -19.8293 108° East  Level FlightAware
Sat 01:13:00 AM 55.9267 -19.6018 108° East  Level FlightAware
Sat 01:14:00 AM 55.8842 -19.3748 108° East  Level FlightAware
Sat 01:15:00 AM 55.8413 -19.1483 109° East  Level FlightAware
Sat 01:16:00 AM 55.7980 -18.9223 109° East  Level FlightAware
Sat 01:17:00 AM 55.7542 -18.6968 109° East  Level FlightAware
Sat 01:18:00 AM 55.7101 -18.4718 109° East  Level FlightAware
Sat 01:19:00 AM 55.6655 -18.2474 109° East  Level FlightAware
Sat 01:20:00 AM 55.6206 -18.0234 109° East  Level FlightAware
Sat 01:21:00 AM 55.5752 -17.7999 110° East  Level FlightAware
Sat 01:22:00 AM 55.5294 -17.5770 110° East  Level FlightAware
Sat 01:23:00 AM 55.4832 -17.3546 110° East  Level FlightAware
Sat 01:24:00 AM 55.4366 -17.1327 110° East  Level FlightAware
Sat 01:25:00 AM 55.3897 -16.9114 110° East  Level FlightAware
Sat 01:26:00 AM 55.3423 -16.6905 111° Southeast  Level FlightAware
Sat 01:27:00 AM 55.2945 -16.4702 111° Southeast  Level FlightAware
Sat 01:28:00 AM 55.2463 -16.2505 111° Southeast  Level FlightAware
Sat 01:29:00 AM 55.1978 -16.0312 111° Southeast  Level FlightAware
Sat 01:30:00 AM 55.1488 -15.8125 111° Southeast  Level FlightAware
Sat 01:31:00 AM 55.0994 -15.5944 111° Southeast  Level FlightAware
Sat 01:32:00 AM 55.0497 -15.3767 112° Southeast  Level FlightAware
Sat 01:33:00 AM 54.9996 -15.1597 112° Southeast  Level FlightAware
Sat 01:34:00 AM 54.9491 -14.9431 112° Southeast  Level FlightAware
Sat 01:35:00 AM 54.8982 -14.7271 112° Southeast  Level FlightAware
Sat 01:36:00 AM 54.8469 -14.5117 112° Southeast  Level FlightAware
Sat 01:37:00 AM 54.7953 -14.2972 113° Southeast  Level FlightAware
Sat 01:37:36 AM 54.7810 -13.6890 113° Southeast 484 557 34,500  Level FlightAware
Sat 01:38:00 AM 54.7434 -14.0832 113° Southeast  Level FlightAware
Sat 01:38:19 AM 54.7310 -13.5110 116° Southeast 486 559 35,000  Level FlightAware
Sat 01:38:54 AM 54.6970 -13.3850 115° Southeast 482 555 35,000  Level FlightAware
Sat 01:39:39 AM 54.6540 -13.2280 115° Southeast 480 552 35,000  Level FlightAware
Sat 01:40:20 AM 54.6160 -13.0890 115° Southeast 478 550 35,000  Level FlightAware
Sat 01:41:08 AM 54.5760 -12.9360 114° Southeast 478 550 35,000  Level FlightAware
Sat 01:41:36 AM 54.5460 -12.8340 117° Southeast 477 549 35,000  Level FlightAware
Sat 01:42:20 AM 54.5010 -12.6730 116° Southeast 479 551 35,000  Level FlightAware
Sat 01:43:00 AM 54.4630 -12.5360 115° Southeast 479 551 35,000  Level FlightAware
Sat 01:43:41 AM 54.4230 -12.3950 116° Southeast 479 551 35,000  Level FlightAware
Sat 01:44:26 AM 54.3820 -12.2490 116° Southeast 479 551 35,000  Level FlightAware
Sat 01:45:23 AM 54.3250 -12.0490 116° Southeast 479 551 35,000  Level FlightAware
Sat 01:46:03 AM 54.2860 -11.9130 116° Southeast 478 550 35,000  Level FlightAware
Sat 01:46:48 AM 54.2420 -11.7610 116° Southeast 477 549 35,000  Level FlightAware
Sat 01:47:29 AM 54.2030 -11.6250 116° Southeast 478 550 35,000  Level FlightAware
Sat 01:48:08 AM 54.1640 -11.4930 117° Southeast 478 550 35,000  Level FlightAware
Sat 01:48:51 AM 54.1190 -11.3420 117° Southeast 475 547 35,000  Level FlightAware
Sat 01:49:46 AM 54.0660 -11.1620 117° Southeast 474 545 35,000  Level FlightAware
Sat 01:50:26 AM 54.0260 -11.0290 117° Southeast 474 545 35,000  Level FlightAware
Sat 01:51:12 AM 53.9810 -10.8780 117° Southeast 472 543 35,000  Level FlightAware
Sat 01:51:51 AM 53.9420 -10.7500 117° Southeast 471 542 35,000  Level FlightAware
Sat 01:52:36 AM 53.8950 -10.5950 117° Southeast 471 542 35,000  Level FlightAware
Sat 01:53:21 AM 53.8500 -10.4480 117° Southeast 471 542 35,000  Level FlightAware
Sat 01:54:01 AM 53.8110 -10.3210 117° Southeast 471 542 35,000  Level FlightAware
Sat 01:54:46 AM 53.7640 -10.1690 118° Southeast 471 542 35,000  Level FlightAware
Sat 01:55:26 AM 53.7240 -10.0400 118° Southeast 471 542 35,000  Level FlightAware
Sat 01:56:02 AM 53.6880 -9.9230 117° Southeast 472 543 35,000  Level FlightAware
Sat 01:56:51 AM 53.6370 -9.7600 118° Southeast 476 548 35,000  Level FlightAware
Sat 01:57:27 AM 53.6000 -9.6450 118° Southeast 477 549 35,000  Level FlightAware
Sat 01:58:06 AM 53.5590 -9.5150 118° Southeast 477 549 35,000  Level FlightAware
Sat 01:58:46 AM 53.5180 -9.3860 118° Southeast 477 549 35,000  Level FlightAware
Sat 01:59:26 AM 53.4750 -9.2550 119° Southeast 478 550 35,000  Level FlightAware
Sat 01:59:56 AM 53.4450 -9.1600 118° Southeast 477 549 35,000 -77 Level FlightAware
Sat 02:00:44 AM 53.3914 -8.9969 118° Southeast 460 529 34,900  Descending FlightAware
Sat 02:00:49 AM 53.3910 -8.9950 118° Southeast 477 549 35,000 122 Climbing FlightAware
Sat 02:01:33 AM 53.3460 -8.8550 118° Southeast 476 548 35,000  Level FlightAware
Sat 02:02:14 AM 53.2965 -8.7066 118° Southeast 460 529 35,000  Level FlightAware
Sat 02:02:20 AM 53.2960 -8.7040 118° Southeast 477 549 35,000  Level FlightAware
Sat 02:02:56 AM 53.2570 -8.5880 119° Southeast 475 547 35,000  Level FlightAware
Sat 02:03:41 AM 53.2130 -8.4540 119° Southeast 475 547 35,000  Level FlightAware
Sat 02:04:14 AM 53.1686 -8.3206 119° Southeast 456 525 35,000  Level FlightAware
Sat 02:04:24 AM 53.1600 -8.2950 119° Southeast 476 548 35,000  Level FlightAware
Sat 02:05:04 AM 53.1160 -8.1640 119° Southeast 476 548 35,000  Level FlightAware
Sat 02:05:38 AM 53.0790 -8.0550 119° Southeast 476 548 35,000  Level FlightAware
Sat 02:06:14 AM 53.0395 -7.9383 119° Southeast 456 525 35,000  Level FlightAware
Sat 02:06:24 AM 53.0300 -7.9100 119° Southeast 476 548 35,000  Level FlightAware
Sat 02:07:04 AM 52.9860 -7.7810 119° Southeast 476 548 35,000  Level FlightAware
Sat 02:07:40 AM 52.9470 -7.6690 120° Southeast 477 549 35,000  Level FlightAware
Sat 02:08:14 AM 52.9091 -7.5574 120° Southeast 454 522 35,000  Level FlightAware
Sat 02:08:20 AM 52.9030 -7.5400 120° Southeast 478 550 35,000  Level FlightAware
Sat 02:09:04 AM 52.8550 -7.4010 120° Southeast 479 551 35,000  Level FlightAware
Sat 02:09:44 AM 52.8101 -7.2721 120° Southeast 452 520 35,000  Level FlightAware
Sat 02:09:45 AM 52.8100 -7.2730 120° Southeast 481 554 35,000  Level FlightAware
Sat 02:10:15 AM 52.7766 -7.1763 120° Southeast 452 520 35,000  Level FlightAware
Sat 02:10:29 AM 52.7610 -7.1330 120° Southeast 481 554 35,000  Level FlightAware
Sat 02:11:05 AM 52.7210 -7.0190 120° Southeast 482 555 35,000  Level FlightAware
Sat 02:11:45 AM 52.6759 -6.8905 120° Southeast 454 522 35,000  Level FlightAware
Sat 02:11:54 AM 52.6680 -6.8680 120° Southeast 485 558 35,000  Level FlightAware
Sat 02:12:34 AM 52.6210 -6.7360 120° Southeast 487 560 35,000  Level FlightAware
Sat 02:13:14 AM 52.5750 -6.6070 120° Southeast 487 560 35,000  Level FlightAware
Sat 02:13:15 AM 52.5735 -6.6039 120° Southeast 458 527 35,000  Level FlightAware
Sat 02:13:45 AM 52.5392 -6.5082 120° Southeast 460 529 35,000  Level FlightAware
Sat 02:13:58 AM 52.5240 -6.4670 120° Southeast 488 562 35,000  Level FlightAware
Sat 02:14:38 AM 52.4790 -6.3420 121° Southeast 488 562 35,000  Level FlightAware
Sat 02:15:15 AM 52.4355 -6.2222 121° Southeast 458 527 35,000  Level FlightAware
Sat 02:15:36 AM 52.4160 -6.1640 121° Southeast 485 558 35,000  Level FlightAware
Sat 02:16:09 AM 52.3951 -6.0359 121° Southeast 456 525 35,000  Level FlightAware
Sat 02:16:19 AM 52.3890 -6.0010 121° Southeast 489 563 35,000  Level FlightAware
Sat 02:16:58 AM 52.3650 -5.8640 106° East 488 562 35,000  Level FlightAware
Sat 02:17:39 AM 52.3372 -5.7169 106° East 456 525 35,000  Level FlightAware
Sat 02:17:41 AM 52.3360 -5.7130 106° East 491 565 35,000  Level FlightAware
Sat 02:18:23 AM 52.3070 -5.5640 108° East 491 565 35,000  Level FlightAware
Sat 02:19:05 AM 52.2830 -5.4140 105° East 492 566 35,000  Level FlightAware
Sat 02:19:39 AM 52.2623 -5.2892 105° East 456 525 35,000  Level FlightAware
Sat 02:19:41 AM 52.2610 -5.2840 105° East 493 567 35,000  Level FlightAware
Sat 02:20:15 AM 52.2406 -5.1605 105° East 458 527 35,000  Level FlightAware
Sat 02:20:21 AM 52.2370 -5.1410 105° East 493 567 35,000  Level FlightAware
Sat 02:21:05 AM 52.2100 -4.9830 106° East 494 568 35,000  Level FlightAware
Sat 02:21:39 AM 52.1890 -4.8610 106° East 494 568 35,000  Level FlightAware
Sat 02:22:21 AM 52.1624 -4.7102 106° East 458 527 35,000  Level FlightAware
Sat 02:22:23 AM 52.1610 -4.7040 106° East 494 568 35,000  Level FlightAware
Sat 02:23:05 AM 52.1350 -4.5530 106° East 495 570 35,000  Level FlightAware
Sat 02:23:40 AM 52.1130 -4.4330 107° East 494 568 35,000  Level FlightAware
Sat 02:24:21 AM 52.0870 -4.2870 106° East 494 568 35,000  Level FlightAware
Sat 02:25:01 AM 52.0620 -4.1420 106° East 494 568 35,000  Level FlightAware
Sat 02:25:39 AM 52.0366 -4.0043 106° East 456 525 35,000  Level FlightAware
Sat 02:25:43 AM 52.0350 -3.9940 106° East 494 568 35,000  Level FlightAware
Sat 02:26:25 AM 52.0070 -3.8440 107° East 493 567 35,000  Level FlightAware
Sat 02:27:11 AM 51.9770 -3.6810 107° East 492 566 35,000  Level FlightAware
Sat 02:27:45 AM 51.9545 -3.5581 107° East 454 522 35,000  Level FlightAware
Sat 02:27:51 AM 51.9510 -3.5400 107° East 491 565 35,000  Level FlightAware
Sat 02:28:31 AM 51.9250 -3.4000 107° East 491 565 35,000  Level FlightAware
Sat 02:29:13 AM 51.8972 -3.2526 107° East 491 565 35,000  Level FlightAware
Sat 02:29:43 AM 51.8771 -3.1466 107° East 491 565 35,000  Level FlightAware
Sat 02:30:15 AM 51.8556 -3.0337 107° East 491 565 35,000  Level FlightAware
Sat 02:30:46 AM 51.8349 -2.9257 107° East 491 565 35,000  Level FlightAware
Sat 02:31:19 AM 51.8127 -2.8112 107° East 492 566 35,000  Level FlightAware
Sat 02:31:50 AM 51.7919 -2.7040 107° East 491 565 35,000  Level FlightAware
Sat 02:32:21 AM 51.7710 -2.5967 107° East 493 567 35,000  Level FlightAware
Sat 02:32:53 AM 51.7489 -2.4841 108° East 493 567 35,000  Level FlightAware
Sat 02:33:23 AM 51.7276 -2.3768 108° East 494 568 35,000  Level FlightAware
Sat 02:33:55 AM 51.7056 -2.2656 108° East 494 568 35,000  Level FlightAware
Sat 02:34:28 AM 51.6830 -2.1523 108° East 495 570 35,000  Level FlightAware
Sat 02:34:58 AM 51.6613 -2.0447 108° East 495 570 35,000  Level FlightAware
Sat 02:35:29 AM 51.6396 -1.9375 108° East 496 571 35,000  Level FlightAware
Sat 02:36:01 AM 51.6168 -1.8250 108° East 496 571 35,000  Level FlightAware
Sat 02:36:32 AM 51.5950 -1.7186 108° East 496 571 35,000  Level FlightAware
Sat 02:37:03 AM 51.5727 -1.6099 108° East 495 570 35,000  Level FlightAware
Sat 02:37:33 AM 51.5511 -1.5056 108° East 495 570 35,000  Level FlightAware
Sat 02:38:03 AM 51.5293 -1.4003 108° East 495 570 35,000  Level FlightAware
Sat 02:38:35 AM 51.5064 -1.2899 108° East 495 570 35,000  Level FlightAware
Sat 02:38:44 AM 51.5005 -1.2595 107° East 495 570 35,000  Level FlightAware
Sat 02:39:15 AM 51.4835 -1.1485 104° East 494 568 35,000  Level FlightAware
Sat 02:39:46 AM 51.4690 -1.0375 102° East 494 568 35,000  Level FlightAware
Sat 02:40:20 AM 51.4536 -0.9155 101° East 494 568 35,000  Level FlightAware
Sat 02:40:50 AM 51.4402 -0.8081 101° East 495 570 35,000  Level FlightAware
Sat 02:41:09 AM 51.4321 -0.7414 101° East 494 568 35,000  Level FlightAware
Sat 02:41:40 AM 51.4226 -0.6299 98° East 493 567 35,000  Level FlightAware
Sat 02:42:12 AM 51.4131 -0.5150 98° East 493 567 35,000  Level FlightAware
Sat 02:42:44 AM 51.4031 -0.3988 98° East 494 568 35,000  Level FlightAware
Sat 02:43:15 AM 51.3929 -0.2871 98° East 493 567 35,000  Level FlightAware
Sat 02:43:48 AM 51.3817 -0.1672 98° East 494 568 35,000  Level FlightAware
Sat 02:44:20 AM 51.3707 -0.0522 99° East 493 567 35,000  Level FlightAware
Sat 02:44:50 AM 51.3603 0.0566 99° East 493 567 35,000  Level FlightAware
Sat 02:45:21 AM 51.3500 0.1664 99° East 491 565 35,000  Level FlightAware
Sat 02:45:52 AM 51.3399 0.2771 98° East 491 565 35,000  Level FlightAware
Sat 02:46:31 AM 51.3269 0.4163 98° East 490 564 35,000  Level FlightAware
Sat 02:47:02 AM 51.3165 0.5263 99° East 490 564 35,000  Level FlightAware
Sat 02:47:33 AM 51.3057 0.6397 99° East 489 563 35,000  Level FlightAware
Sat 02:48:04 AM 51.2953 0.7479 99° East 488 562 35,000  Level FlightAware
Sat 02:48:37 AM 51.2839 0.8647 99° East 486 559 35,000  Level FlightAware
Sat 02:49:08 AM 51.2733 0.9723 99° East 485 558 35,000  Level FlightAware
Sat 02:49:48 AM 51.2591 1.1169 99° East 454 522 35,000  Level FlightAware
Sat 02:50:02 AM 51.2550 1.1610 99° East 483 556 35,000  Level FlightAware
Sat 02:50:36 AM 51.2422 1.2859 99° East 454 522 35,000  Level FlightAware
Sat 02:50:48 AM 51.2380 1.3240 99° East 482 555 35,000  Level FlightAware
Sat 02:51:24 AM 51.2249 1.4536 99° East 454 522 35,000  Level FlightAware
Sat 02:51:34 AM 51.2200 1.4850 99° East 480 552 35,000  Level FlightAware
Sat 02:52:16 AM 51.1870 1.6180 112° Southeast 481 554 35,000  Level FlightAware
Sat 02:52:55 AM 51.1560 1.7470 111° Southeast 480 552 35,000  Level FlightAware
Sat 02:53:41 AM 51.1210 1.9010 110° East 480 552 35,000  Level FlightAware
Sat 02:54:19 AM 51.0920 2.0280 110° East 479 551 35,000  Level FlightAware
Sat 02:55:06 AM 51.0590 2.1840 109° East 477 549 35,000  Level FlightAware
Sat 02:55:43 AM 51.0408 2.3133 109° East 450 518 35,000  Level FlightAware
Sat 02:55:45 AM 51.0400 2.3150 109° East 478 550 35,000  Level FlightAware
Sat 02:56:25 AM 51.0200 2.4573 109° East 450 518 35,000  Level FlightAware
Sat 02:56:31 AM 51.0170 2.4770 109° East 478 550 35,000  Level FlightAware
Sat 02:57:11 AM 50.9990 2.6100 102° East 478 550 35,000  Level FlightAware
Sat 02:57:51 AM 50.9790 2.7490 103° East 479 551 35,000  Level FlightAware
Sat 02:58:35 AM 50.9570 2.8990 103° East 478 550 35,000  Level FlightAware
Sat 02:59:13 AM 50.9390 3.0250 103° East 478 550 35,000  Level FlightAware
Sat 02:59:51 AM 50.9140 3.1520 107° East 479 551 35,000  Level FlightAware
Sat 03:00:49 AM 50.8618 3.3465 107° East 452 520 35,000  Level FlightAware
Sat 03:00:51 AM 50.8610 3.3490 107° East 480 552 35,000  Level FlightAware
Sat 03:01:27 AM 50.8310 3.4590 113° Southeast 481 554 35,000  Level FlightAware
Sat 03:02:13 AM 50.7880 3.6140 114° Southeast 480 552 35,000  Level FlightAware
Sat 03:02:59 AM 50.7490 3.7510 114° Southeast 479 551 35,000  Level FlightAware
Sat 03:03:41 AM 50.7090 3.8940 114° Southeast 478 550 35,000  Level FlightAware
Sat 03:04:21 AM 50.6740 4.0170 114° Southeast 477 549 35,000  Level FlightAware
Sat 03:05:01 AM 50.6365 4.1512 114° Southeast 454 522 35,000  Level FlightAware
Sat 03:05:04 AM 50.6340 4.1580 114° Southeast 476 548 35,000  Level FlightAware
Sat 03:05:44 AM 50.5982 4.2841 114° Southeast 454 522 35,000  Level FlightAware
Sat 03:05:45 AM 50.5980 4.2830 114° Southeast 476 548 35,000  Level FlightAware
Sat 03:06:26 AM 50.5630 4.4050 114° Southeast 476 548 35,000  Level FlightAware
Sat 03:07:07 AM 50.5240 4.5410 114° Southeast 475 547 35,000 832 Level FlightAware
Sat 03:08:07 AM 50.4690 4.7290 115° Southeast 471 542 36,400 1,277 Climbing FlightAware
Sat 03:08:41 AM 50.4380 4.8330 115° Southeast 473 544 37,000 500 Climbing FlightAware
Sat 03:09:19 AM 50.4020 4.9540 115° Southeast 478 550 37,000  Level FlightAware
Sat 03:10:03 AM 50.3620 5.0920 114° Southeast 475 547 37,000  Level FlightAware
Sat 03:10:39 AM 50.3290 5.2000 116° Southeast 472 543 37,000  Level FlightAware
Sat 03:11:20 AM 50.2920 5.3240 115° Southeast 470 541 37,000  Level FlightAware
Sat 03:12:05 AM 50.2490 5.4660 115° Southeast 467 537 37,000  Level FlightAware
Sat 03:12:41 AM 50.2160 5.5760 115° Southeast 466 536 37,000  Level FlightAware
Sat 03:13:23 AM 50.1780 5.7030 115° Southeast 466 536 37,000  Level FlightAware
Sat 03:14:10 AM 50.1330 5.8480 116° Southeast 466 536 37,000  Level FlightAware
Sat 03:14:49 AM 50.0980 5.9630 115° Southeast 467 537 37,000  Level FlightAware
Sat 03:15:28 AM 50.0620 6.0780 116° Southeast 467 537 37,000  Level FlightAware
Sat 03:16:07 AM 50.0260 6.1950 116° Southeast 470 541 37,000  Level FlightAware
Sat 03:16:51 AM 49.9830 6.3330 116° Southeast 471 542 37,000  Level FlightAware
Sat 03:17:31 AM 49.9450 6.4550 116° Southeast 473 544 37,000  Level FlightAware
Sat 03:18:07 AM 49.9100 6.5630 117° Southeast 473 544 37,000  Level FlightAware
Sat 03:18:51 AM 49.8690 6.6920 116° Southeast 474 545 37,000  Level FlightAware
Sat 03:19:31 AM 49.8280 6.8180 117° Southeast 475 547 37,000  Level FlightAware
Sat 03:20:15 AM 49.7860 6.9470 117° Southeast 476 548 37,000  Level FlightAware
Sat 03:20:52 AM 49.7560 7.0390 117° Southeast 476 548 37,000  Level FlightAware
Sat 03:21:30 AM 49.7210 7.1480 116° Southeast 477 549 37,000  Level FlightAware
Sat 03:22:18 AM 49.6710 7.3020 117° Southeast 478 550 37,000  Level FlightAware
Sat 03:22:47 AM 49.6410 7.3910 117° Southeast 477 549 37,000  Level FlightAware
Sat 03:23:29 AM 49.6020 7.5090 117° Southeast 477 549 37,000  Level FlightAware
Sat 03:24:18 AM 49.5410 7.6920 117° Southeast 475 547 37,000  Level FlightAware
Sat 03:25:00 AM 49.5000 7.8140 117° Southeast 474 545 37,000  Level FlightAware
Sat 03:25:40 AM 49.4610 7.9310 117° Southeast 474 545 37,000  Level FlightAware
Sat 03:26:24 AM 49.4150 8.0650 118° Southeast 473 544 37,000  Level FlightAware
Sat 03:27:06 AM 49.3720 8.1910 118° Southeast 472 543 37,000  Level FlightAware
Sat 03:27:42 AM 49.3370 8.2920 118° Southeast 471 542 37,000  Level FlightAware
Sat 03:28:22 AM 49.2950 8.4120 118° Southeast 470 541 37,000  Level FlightAware
Sat 03:29:06 AM 49.2520 8.5390 117° Southeast 468 539 37,000  Level FlightAware
Sat 03:29:46 AM 49.2110 8.6610 117° Southeast 465 535 37,000  Level FlightAware
Sat 03:30:29 AM 49.1710 8.7830 117° Southeast 462 532 37,000  Level FlightAware
Sat 03:31:11 AM 49.1300 8.9050 117° Southeast 460 529 37,000  Level FlightAware
Sat 03:32:04 AM 49.0790 9.0590 117° Southeast 459 528 37,000  Level FlightAware
Sat 03:32:44 AM 49.0410 9.1650 119° Southeast 459 528 37,000  Level FlightAware
Sat 03:33:28 AM 48.9970 9.2870 119° Southeast 458 527 37,000  Level FlightAware
Sat 03:34:08 AM 48.9550 9.4120 117° Southeast 454 522 37,000 282 Level FlightAware
Sat 03:34:53 AM 48.9090 9.5350 120° Southeast 452 520 37,400 706 Climbing FlightAware
Sat 03:35:33 AM 48.8660 9.6420 121° Southeast 452 520 38,000 815 Climbing FlightAware
Sat 03:36:14 AM 48.8250 9.7460 121° Southeast 454 522 38,500 615 Climbing FlightAware
Sat 03:36:51 AM 48.7830 9.8540 121° Southeast 458 527 38,800 380 Climbing FlightAware
Sat 03:37:33 AM 48.7390 9.9680 120° Southeast 461 531 39,000 146 Climbing FlightAware
Sat 03:38:13 AM 48.6940 10.0810 121° Southeast 460 529 39,000  Level FlightAware
Sat 03:38:53 AM 48.6510 10.1920 120° Southeast 460 529 39,000  Level FlightAware
Sat 03:39:34 AM 48.6060 10.3060 121° Southeast 460 529 39,000  Level FlightAware
Sat 03:40:18 AM 48.5580 10.4270 121° Southeast 467 537 39,000  Level FlightAware
Sat 03:40:53 AM 48.5170 10.5290 121° Southeast 468 539 39,000  Level FlightAware
Sat 03:41:43 AM 48.4610 10.6670 121° Southeast 469 540 39,000  Level FlightAware
Sat 03:42:23 AM 48.4170 10.7770 121° Southeast 470 541 39,000  Level FlightAware
Sat 03:43:19 AM 48.3520 10.9340 122° Southeast 470 541 39,000  Level FlightAware
Sat 03:43:49 AM 48.3200 11.0130 121° Southeast 466 536 39,000  Level FlightAware
Sat 03:44:36 AM 48.2670 11.1430 121° Southeast 467 537 39,000  Level FlightAware
Sat 03:45:14 AM 48.2220 11.2520 122° Southeast 467 537 39,000  Level FlightAware
Sat 03:45:54 AM 48.1760 11.3640 122° Southeast 467 537 39,000  Level FlightAware
Sat 03:46:39 AM 48.1240 11.4880 122° Southeast 466 536 39,000  Level FlightAware
Sat 03:47:19 AM 48.0790 11.5970 122° Southeast 465 535 39,000  Level FlightAware
Sat 03:47:59 AM 48.0320 11.7070 123° Southeast 464 534 39,000  Level FlightAware
Sat 03:48:39 AM 47.9860 11.8160 122° Southeast 464 534 39,000  Level FlightAware
Sat 03:49:24 AM 47.9330 11.9410 122° Southeast 464 534 39,000  Level FlightAware
Sat 03:49:59 AM 47.8940 12.0340 122° Southeast 463 533 39,000  Level FlightAware
Sat 03:50:39 AM 47.8470 12.1440 122° Southeast 462 532 39,000  Level FlightAware
Sat 03:51:19 AM 47.8030 12.2450 123° Southeast 462 532 39,000  Level FlightAware
Sat 03:51:59 AM 47.7560 12.3560 122° Southeast 462 532 39,000  Level FlightAware
Sat 03:52:39 AM 47.7100 12.4610 123° Southeast 461 531 39,000  Level FlightAware
Sat 03:53:20 AM 47.6620 12.5720 123° Southeast 460 529 39,000  Level FlightAware
Sat 03:54:04 AM 47.6100 12.6910 123° Southeast 459 528 39,000  Level FlightAware
Sat 03:54:44 AM 47.5630 12.7980 123° Southeast 457 526 39,000  Level FlightAware
Sat 03:55:25 AM 47.5190 12.8990 123° Southeast 456 525 39,000  Level FlightAware
Sat 03:56:09 AM 47.4650 13.0200 123° Southeast 454 522 39,000  Level FlightAware
Sat 03:56:49 AM 47.4190 13.1250 123° Southeast 454 522 39,000  Level FlightAware
Sat 03:57:29 AM 47.3720 13.2310 123° Southeast 454 522 39,000  Level FlightAware
Sat 03:58:09 AM 47.3250 13.3320 124° Southeast 459 528 39,000  Level FlightAware
Sat 03:58:49 AM 47.2700 13.4300 130° Southeast 455 524 39,000  Level FlightAware
Sat 03:59:31 AM 47.2110 13.5320 130° Southeast 460 529 39,000  Level FlightAware
Sat 04:00:09 AM 47.1620 13.6150 131° Southeast 460 529 39,000  Level FlightAware
Sat 04:00:52 AM 47.1000 13.7200 131° Southeast 460 529 39,000  Level FlightAware
Sat 04:01:39 AM 47.0360 13.8280 131° Southeast 460 529 39,000  Level FlightAware
Sat 04:02:17 AM 46.9810 13.9220 131° Southeast 461 531 39,000  Level FlightAware
Sat 04:03:04 AM 46.9170 14.0300 131° Southeast 462 532 39,000  Level FlightAware
Sat 04:03:45 AM 46.8680 14.1140 130° Southeast 461 531 39,000  Level FlightAware
Sat 04:04:32 AM 46.8100 14.2410 124° Southeast 461 531 39,000  Level FlightAware
Sat 04:05:09 AM 46.7680 14.3330 124° Southeast 461 531 39,000  Level FlightAware
Sat 04:05:51 AM 46.7150 14.4460 124° Southeast 462 532 39,000  Level FlightAware
Sat 04:06:32 AM 46.6680 14.5490 124° Southeast 461 531 39,000  Level FlightAware
Sat 04:07:15 AM 46.6200 14.6560 123° Southeast 460 529 39,000  Level FlightAware
Sat 04:07:59 AM 46.5660 14.7740 124° Southeast 460 529 39,000  Level FlightAware
Sat 04:08:45 AM 46.5110 14.8950 123° Southeast 461 531 39,000  Level FlightAware
Sat 04:09:28 AM 46.4600 15.0050 124° Southeast 461 531 39,000  Level FlightAware
Sat 04:10:04 AM 46.4190 15.0950 123° Southeast 461 531 39,000  Level FlightAware
Sat 04:10:51 AM 46.3660 15.2090 124° Southeast 461 531 39,000  Level FlightAware
Sat 04:11:28 AM 46.3180 15.3120 124° Southeast 461 531 39,000  Level FlightAware
Sat 04:12:08 AM 46.2710 15.4130 124° Southeast 462 532 39,000  Level FlightAware
Sat 04:12:50 AM 46.2220 15.5200 123° Southeast 462 532 39,000  Level FlightAware
Sat 04:13:29 AM 46.1750 15.6190 124° Southeast 462 532 39,000  Level FlightAware
Sat 04:14:15 AM 46.1280 15.7460 118° Southeast 462 532 39,000  Level FlightAware
Sat 04:14:54 AM 46.1020 15.8470 110° East 462 532 39,000  Level FlightAware
Sat 04:15:41 AM 46.0600 15.9920 113° Southeast 463 533 39,000  Level FlightAware
Sat 04:16:23 AM 46.0250 16.1080 113° Southeast 464 534 39,000  Level FlightAware
Sat 04:17:05 AM 45.9900 16.2250 113° Southeast 464 534 39,000  Level FlightAware
Sat 04:18:05 AM 45.9350 16.4060 114° Southeast 462 532 39,000  Level FlightAware
Sat 04:18:41 AM 45.9050 16.5100 112° Southeast 461 531 39,000  Level FlightAware
Sat 04:19:21 AM 45.8760 16.6120 112° Southeast 461 531 39,000  Level FlightAware
Sat 04:20:01 AM 45.8420 16.7280 113° Southeast 460 529 39,000  Level FlightAware
Sat 04:20:45 AM 45.8040 16.8590 113° Southeast 460 529 39,000  Level FlightAware
Sat 04:21:25 AM 45.7710 16.9700 113° Southeast 460 529 39,000  Level FlightAware
Sat 04:22:05 AM 45.7410 17.0730 113° Southeast 459 528 39,000  Level FlightAware
Sat 04:22:50 AM 45.7010 17.2080 113° Southeast 459 528 39,000  Level FlightAware
Sat 04:23:30 AM 45.6670 17.3190 114° Southeast 458 527 39,000  Level FlightAware
Sat 04:24:15 AM 45.6310 17.4420 113° Southeast 457 526 39,000  Level FlightAware
Sat 04:24:55 AM 45.5970 17.5560 113° Southeast 459 528 39,000  Level FlightAware
Sat 04:25:35 AM 45.5620 17.6690 114° Southeast 457 526 39,000  Level FlightAware
Sat 04:26:20 AM 45.5250 17.7920 113° Southeast 457 526 39,000  Level FlightAware
Sat 04:27:05 AM 45.4870 17.9150 114° Southeast 458 527 39,000  Level FlightAware
Sat 04:27:45 AM 45.4550 18.0210 113° Southeast 458 527 39,000  Level FlightAware
Sat 04:28:25 AM 45.4190 18.1370 114° Southeast 456 525 39,000  Level FlightAware
Sat 04:29:05 AM 45.3850 18.2490 113° Southeast 456 525 39,000  Level FlightAware
Sat 04:29:50 AM 45.3470 18.3710 114° Southeast 460 529 39,000  Level FlightAware
Sat 04:30:31 AM 45.3040 18.4870 118° Southeast 459 528 39,000  Level FlightAware
Sat 04:31:07 AM 45.2700 18.5790 118° Southeast 459 528 39,000  Level FlightAware
Sat 04:31:51 AM 45.2240 18.6970 119° Southeast 459 528 39,000  Level FlightAware
Sat 04:32:31 AM 45.1830 18.8020 119° Southeast 458 527 39,000  Level FlightAware
Sat 04:33:13 AM 45.1400 18.9130 119° Southeast 458 527 39,000  Level FlightAware
Sat 04:33:59 AM 45.0930 19.0330 119° Southeast 460 529 39,000  Level FlightAware
Sat 04:34:35 AM 45.0570 19.1280 118° Southeast 459 528 39,000  Level FlightAware
Sat 04:35:21 AM 45.0090 19.2490 119° Southeast 459 528 39,000  Level FlightAware
Sat 04:36:05 AM 44.9630 19.3640 119° Southeast 460 529 39,000  Level FlightAware
Sat 04:36:45 AM 44.9230 19.4650 119° Southeast 460 529 39,000  Level FlightAware
Sat 04:37:27 AM 44.8780 19.5790 119° Southeast 460 529 39,000  Level FlightAware
Sat 04:38:07 AM 44.8370 19.6810 120° Southeast 461 531 39,000  Level FlightAware
Sat 04:38:53 AM 44.7890 19.8020 119° Southeast 461 531 39,000  Level FlightAware
Sat 04:39:29 AM 44.7510 19.8950 120° Southeast 460 529 39,000  Level FlightAware
Sat 04:40:09 AM 44.7090 20.0000 119° Southeast 460 529 39,000  Level FlightAware
Sat 04:40:49 AM 44.6670 20.1030 120° Southeast 459 528 39,000  Level FlightAware
Sat 04:41:29 AM 44.6240 20.2080 120° Southeast 460 529 39,000  Level FlightAware
Sat 04:42:01 AM 44.5910 20.2880 120° Southeast 459 528 39,000  Level FlightAware
Sat 04:42:43 AM 44.5480 20.3940 120° Southeast 459 528 39,000  Level FlightAware
Sat 04:43:23 AM 44.5040 20.5000 120° Southeast 460 529 39,000  Level FlightAware
Sat 04:44:03 AM 44.4610 20.6040 120° Southeast 460 529 39,000  Level FlightAware
Sat 04:44:50 AM 44.4120 20.7220 120° Southeast 461 531 39,000  Level FlightAware
Sat 04:45:30 AM 44.3690 20.8270 120° Southeast 461 531 39,000  Level FlightAware
Sat 04:46:10 AM 44.3260 20.9280 121° Southeast 461 531 39,000  Level FlightAware
Sat 04:46:54 AM 44.2780 21.0420 120° Southeast 462 532 39,000  Level FlightAware
Sat 04:47:38 AM 44.2300 21.1560 120° Southeast 462 532 39,000  Level FlightAware
Sat 04:48:18 AM 44.1890 21.2550 120° Southeast 462 532 39,000  Level FlightAware
Sat 04:49:14 AM 44.1310 21.3900 121° Southeast 462 532 39,000  Level FlightAware
Sat 04:49:52 AM 44.0880 21.4920 120° Southeast 462 532 39,000  Level FlightAware
Sat 04:50:37 AM 44.0370 21.6110 121° Southeast 462 532 39,000  Level FlightAware
Sat 04:51:22 AM 43.9880 21.7250 121° Southeast 463 533 39,000  Level FlightAware
Sat 04:52:02 AM 43.9460 21.8210 121° Southeast 462 532 39,000  Level FlightAware
Sat 04:52:42 AM 43.9000 21.9270 121° Southeast 463 533 39,000  Level FlightAware
Sat 04:53:22 AM 43.8600 22.0210 121° Southeast 463 533 39,000  Level FlightAware
Sat 04:54:07 AM 43.8100 22.1350 121° Southeast 464 534 39,000  Level FlightAware
Sat 04:54:37 AM 43.7730 22.2210 121° Southeast 464 534 39,000  Level FlightAware
Sat 04:55:17 AM 43.7330 22.3120 121° Southeast 464 534 39,000  Level FlightAware
Sat 04:55:57 AM 43.6860 22.4260 120° Southeast 465 535 39,000  Level FlightAware
Sat 04:56:42 AM 43.6390 22.5410 119° Southeast 466 536 39,000  Level FlightAware
Sat 04:57:22 AM 43.5970 22.6450 119° Southeast 468 539 39,000  Level FlightAware
Sat 04:58:07 AM 43.5490 22.7600 120° Southeast 468 539 39,000  Level FlightAware
Sat 04:58:37 AM 43.5170 22.8400 119° Southeast 469 540 39,000  Level FlightAware
Sat 04:59:22 AM 43.4690 22.9530 120° Southeast 470 541 39,000  Level FlightAware
Sat 05:00:02 AM 43.4260 23.0570 120° Southeast 470 541 39,000  Level FlightAware
Sat 05:00:37 AM 43.3870 23.1520 119° Southeast 470 541 39,000  Level FlightAware
Sat 05:01:22 AM 43.3390 23.2660 120° Southeast 472 543 39,000  Level FlightAware
Sat 05:02:02 AM 43.2940 23.3710 120° Southeast 474 545 39,000  Level FlightAware
Sat 05:02:42 AM 43.2510 23.4740 120° Southeast 475 547 39,000  Level FlightAware
Sat 05:03:27 AM 43.2020 23.5910 120° Southeast 476 548 39,000  Level FlightAware
Sat 05:04:07 AM 43.1570 23.6950 121° Southeast 477 549 39,000  Level FlightAware
Sat 05:04:48 AM 43.1130 23.8000 120° Southeast 479 551 39,000  Level FlightAware
Sat 05:05:32 AM 43.0630 23.9160 121° Southeast 480 552 39,000  Level FlightAware
Sat 05:06:12 AM 43.0170 24.0230 120° Southeast 481 554 39,000  Level FlightAware
Sat 05:06:57 AM 42.9660 24.1400 121° Southeast 481 554 39,000  Level FlightAware
Sat 05:07:37 AM 42.9230 24.2400 120° Southeast 482 555 39,000  Level FlightAware
Sat 05:08:22 AM 42.8720 24.3570 121° Southeast 483 556 39,000  Level FlightAware
Sat 05:09:02 AM 42.8240 24.4670 121° Southeast 484 557 39,000  Level FlightAware
Sat 05:09:42 AM 42.7790 24.5700 121° Southeast 484 557 39,000  Level FlightAware
Sat 05:10:27 AM 42.7270 24.6890 121° Southeast 484 557 39,000  Level FlightAware
Sat 05:11:28 AM 42.6580 24.8440 121° Southeast 484 557 39,000  Level FlightAware
Sat 05:12:12 AM 42.6060 24.9610 121° Southeast 483 556 39,000  Level FlightAware
Sat 05:12:52 AM 42.5600 25.0650 121° Southeast 484 557 39,000  Level FlightAware
Sat 05:13:37 AM 42.5130 25.1700 121° Southeast 484 557 39,000  Level FlightAware
Sat 05:14:18 AM 42.4630 25.2810 121° Southeast 483 556 39,000  Level FlightAware
Sat 05:14:57 AM 42.4160 25.3870 121° Southeast 483 556 39,000  Level FlightAware
Sat 05:15:42 AM 42.3630 25.5040 121° Southeast 483 556 39,000  Level FlightAware
Sat 05:16:22 AM 42.3160 25.6080 121° Southeast 484 557 39,000  Level FlightAware
Sat 05:17:02 AM 42.2690 25.7090 122° Southeast 484 557 39,000  Level FlightAware
Sat 05:17:42 AM 42.2230 25.8100 122° Southeast 484 557 39,000  Level FlightAware
Sat 05:18:27 AM 42.1710 25.9250 121° Southeast 483 556 39,000  Level FlightAware
Sat 05:19:26 AM 42.0990 26.0800 122° Southeast 482 555 39,000 -387 Level FlightAware
Sat 05:20:31 AM 42.0220 26.2460 122° Southeast 483 556 38,200 -906 Descending FlightAware
Sat 05:21:12 AM 41.9760 26.3450 122° Southeast 484 557 37,400 -1,239 Descending FlightAware
Sat 05:22:03 AM 41.9160 26.4740 122° Southeast 486 559 36,300 -1,400 Descending FlightAware
Sat 05:23:12 AM 41.8270 26.6390 126° Southeast 488 562 34,600 -1,745 Descending FlightAware
Sat 05:23:53 AM 41.7770 26.7450 122° Southeast 478 550 33,100 -2,025 Descending FlightAware
Sat 05:24:32 AM 41.7280 26.8450 123° Southeast 458 527 31,900 -2,021 Descending FlightAware
Sat 05:25:28 AM 41.6650 26.9680 124° Southeast 441 507 29,900 -2,202 Descending FlightAware
Sat 05:26:21 AM 41.6040 27.0840 125° Southeast 434 499 27,900 -2,202 Descending FlightAware
Sat 05:27:17 AM 41.5420 27.2030 125° Southeast 416 479 25,900 -1,759 Descending FlightAware
Sat 05:28:34 AM 41.4630 27.3540 125° Southeast 397 457 24,000 -898 Descending FlightAware
Sat 05:29:24 AM 41.4060 27.4610 125° Southeast 400 460 24,000  Level FlightAware
Sat 05:30:24 AM 41.3410 27.5820 126° Southeast 404 465 24,000 -850 Level FlightAware
Sat 05:31:17 AM 41.2880 27.6810 125° Southeast 392 451 22,400 -2,760 Descending FlightAware
Sat 05:32:04 AM 41.2360 27.7780 125° Southeast 376 433 19,400 -3,576 Descending FlightAware
Sat 05:32:56 AM 41.1860 27.8700 126° Southeast 354 407 16,500 -3,122 Descending FlightAware
Sat 05:33:42 AM 41.1460 27.9440 126° Southeast 342 394 14,300 -2,296 Descending FlightAware
Sat 05:34:17 AM 41.1120 28.0090 125° Southeast 329 379 13,400 -1,595 Descending FlightAware
Sat 05:35:01 AM 41.0790 28.0860 120° Southeast 328 377 12,200 -1,333 Descending FlightAware
Sat 05:36:05 AM 41.1110 28.1990 69° East 307 353 11,000 -1,132 Descending FlightAware
Sat 05:36:47 AM 41.1400 28.2590 57° Northeast 294 338 10,200 -786 Descending FlightAware
Sat 05:37:29 AM 41.1670 28.3160 58° Northeast 288 331 9,900 -1,200 Descending FlightAware
Sat 05:37:52 AM 41.1850 28.3550 58° Northeast 281 323 8,900 -1,452 Descending FlightAware
Sat 05:38:31 AM 41.2110 28.4130 59° Northeast 263 303 8,400 -600 Descending FlightAware
Sat 05:39:02 AM 41.2170 28.4640 81° East 261 300 8,200 -522 Descending FlightAware
Sat 05:39:17 AM 41.2100 28.4800 120° Southeast 265 305 8,000 -500 Descending FlightAware
Sat 05:39:26 AM 41.1970 28.4930 143° Southeast 271 312 8,000  Level FlightAware
Sat 05:39:54 AM 41.1680 28.5180 147° Southeast 8,000  Level FlightAware
Sat 05:40:22 AM 41.1400 28.5400 149° Southeast 261 300 8,000  Level FlightAware
Sat 05:40:56 AM 41.1030 28.5700 149° Southeast 263 303 8,000 -87 Level FlightAware
Sat 05:41:31 AM 41.0620 28.6020 150° Southeast 266 306 7,900 -825 Descending FlightAware
Sat 05:42:16 AM 41.0130 28.6260 160° South 266 306 6,900 -1,238 Descending FlightAware
Sat 05:42:34 AM 40.9960 28.6160 204° Southwest 265 305 6,600 -1,826 Descending FlightAware
Sat 05:43:02 AM 40.9740 28.5770 233° Southwest 262 302 5,500 -1,923 Descending FlightAware
Sat 05:43:52 AM 40.9440 28.5120 239° Southwest 268 308 4,100 -1,111 Descending FlightAware
Sat 05:44:23 AM 40.9240 28.4670 240° Southwest 265 305 4,000 -102 Descending FlightAware
Sat 05:44:51 AM 40.9090 28.4330 240° Southwest 265 305 4,000  Level FlightAware
Sat 05:46:57 AM 40.8120 28.2650 90° East 4,000  Level FlightAware
Sat 05:47:00 AM 40.9667 28.8000 90° East  Level FlightAware
Sat 05:47:21 AM 40.7850 28.2750 164° South 213 245 4,000  Level FlightAware
Sat 05:47:41 AM 40.7780 28.2930 117° Southeast 192 221 4,000  Level FlightAware
Sat 05:48:12 AM 40.7730 28.3290 100° East 192 221 4,000  Level FlightAware
Sat 05:48:36 AM 40.7700 28.3560 98° East 188 216 4,000  Level FlightAware
Sat 05:49:02 AM 40.7730 28.3860 82° East 187 215 4,000  Level FlightAware
Sat 05:49:51 AM 40.7910 28.4390 66° East 203 234 4,000  Level FlightAware
Sat 05:50:02 AM 40.7950 28.4480 60° Northeast 206 237 4,000  Level FlightAware
Sat 05:51:01 AM 40.8260 28.5090 56° Northeast 201 231 4,000  Level FlightAware
Sat 05:51:27 AM 40.8410 28.5410 58° Northeast 201 231 4,000  Level FlightAware
Sat 05:51:54 AM 40.8520 28.5650 59° Northeast 201 231 4,000 -277 Level FlightAware
Sat 05:52:32 AM 40.8710 28.6060 58° Northeast 194 223 3,700 -667 Descending FlightAware
Sat 05:52:57 AM 40.8830 28.6320 59° Northeast 187 215 3,300 -1,000 Descending FlightAware
Sat 05:54:02 AM 40.9110 28.6920 58° Northeast 170 196 2,200 -909 Descending FlightAware
Sat 05:54:36 AM 40.9230 28.7190 60° Northeast 138 159 1,800 -679 Descending FlightAware
Sat 05:54:55 AM 40.9280 28.7280 54° Northeast 137 158 1,600 -720 Descending FlightAware
Sat 05:55:51 AM 40.9480 28.7710 58° Northeast 129 148 900 -551 Descending FlightAware
Sat 05:56:33 AM 40.9600 28.7960 58° Northeast 129 148 700 -286 Descending FlightAware
Sat 05:59:00 AM 40.9667 28.8000 90° East  Level FlightAware
Sat 06:00:00 AM 40.9769 28.8211 90° East  Level Estimated

Login

Don't have an account? Register now (free) for customized features, flight alerts, and more!